sensor_id;sensor_type;location;lat;lon;timestamp;pressure;altitude;pressure_sealevel;temperature;humidity
75940;BME280;75809;44.872;20.642;2024-02-16T00:00:58;101347.03;;;6.30;56.74
75940;BME280;75809;44.872;20.642;2024-02-16T00:03:25;101343.59;;;6.28;56.80
75940;BME280;75809;44.872;20.642;2024-02-16T00:05:51;101345.44;;;6.24;56.78
75940;BME280;75809;44.872;20.642;2024-02-16T00:08:17;101347.31;;;6.19;57.52
75940;BME280;75809;44.872;20.642;2024-02-16T00:10:43;101349.09;;;6.19;57.53
75940;BME280;75809;44.872;20.642;2024-02-16T00:13:09;101348.94;;;6.23;58.75
75940;BME280;75809;44.872;20.642;2024-02-16T00:15:34;101349.09;;;6.19;58.85
75940;BME280;75809;44.872;20.642;2024-02-16T00:17:59;101343.13;;;6.12;59.54
75940;BME280;75809;44.872;20.642;2024-02-16T00:20:25;101345.88;;;6.06;59.73
75940;BME280;75809;44.872;20.642;2024-02-16T00:22:51;101340.09;;;5.92;60.91
75940;BME280;75809;44.872;20.642;2024-02-16T00:25:16;101344.78;;;5.77;61.93
75940;BME280;75809;44.872;20.642;2024-02-16T00:27:43;101339.59;;;5.76;62.00
75940;BME280;75809;44.872;20.642;2024-02-16T00:30:09;101339.53;;;5.77;61.44
75940;BME280;75809;44.872;20.642;2024-02-16T00:32:35;101334.47;;;5.70;61.45
75940;BME280;75809;44.872;20.642;2024-02-16T00:35:02;101337.25;;;5.62;61.78
75940;BME280;75809;44.872;20.642;2024-02-16T00:37:28;101328.50;;;5.63;62.36
75940;BME280;75809;44.872;20.642;2024-02-16T00:39:54;101331.94;;;5.67;62.51
75940;BME280;75809;44.872;20.642;2024-02-16T00:42:20;101336.16;;;5.72;62.58
75940;BME280;75809;44.872;20.642;2024-02-16T00:44:48;101327.34;;;5.76;62.54
75940;BME280;75809;44.872;20.642;2024-02-16T00:47:14;101324.81;;;5.72;62.30
75940;BME280;75809;44.872;20.642;2024-02-16T00:49:42;101332.72;;;5.70;62.72
75940;BME280;75809;44.872;20.642;2024-02-16T00:52:08;101332.72;;;5.70;63.34
75940;BME280;75809;44.872;20.642;2024-02-16T00:54:35;101335.28;;;5.72;63.37
75940;BME280;75809;44.872;20.642;2024-02-16T00:57:01;101330.88;;;5.75;63.44
75940;BME280;75809;44.872;20.642;2024-02-16T00:59:28;101332.63;;;5.73;63.54
75940;BME280;75809;44.872;20.642;2024-02-16T01:01:54;101332.72;;;5.70;63.94
75940;BME280;75809;44.872;20.642;2024-02-16T01:04:19;101328.28;;;5.72;63.94
75940;BME280;75809;44.872;20.642;2024-02-16T01:06:45;101327.34;;;5.76;64.06
75940;BME280;75809;44.872;20.642;2024-02-16T01:09:11;101329.88;;;5.79;63.77
75940;BME280;75809;44.872;20.642;2024-02-16T01:11:40;101325.47;;;5.81;63.64
75940;BME280;75809;44.872;20.642;2024-02-16T01:14:06;101322.03;;;5.79;63.65
75940;BME280;75809;44.872;20.642;2024-02-16T01:16:32;101312.44;;;5.78;63.93
75940;BME280;75809;44.872;20.642;2024-02-16T01:18:57;101318.63;;;5.76;63.90
75940;BME280;75809;44.872;20.642;2024-02-16T01:21:23;101313.47;;;5.71;63.29
75940;BME280;75809;44.872;20.642;2024-02-16T01:23:48;101318.72;;;5.71;64.07
75940;BME280;75809;44.872;20.642;2024-02-16T01:26:14;101311.66;;;5.73;64.04
75940;BME280;75809;44.872;20.642;2024-02-16T01:28:40;101312.34;;;5.81;62.14
75940;BME280;75809;44.872;20.642;2024-02-16T01:31:06;101308.69;;;5.89;62.09
75940;BME280;75809;44.872;20.642;2024-02-16T01:33:31;101306.69;;;6.00;61.54
75940;BME280;75809;44.872;20.642;2024-02-16T01:36:00;101305.56;;;6.10;60.30
75940;BME280;75809;44.872;20.642;2024-02-16T01:38:25;101302.63;;;6.22;58.53
75940;BME280;75809;44.872;20.642;2024-02-16T01:40:51;101303.13;;;6.36;58.45
75940;BME280;75809;44.872;20.642;2024-02-16T01:43:20;101301.16;;;6.45;57.31
75940;BME280;75809;44.872;20.642;2024-02-16T01:45:45;101306.28;;;6.51;57.01
75940;BME280;75809;44.872;20.642;2024-02-16T01:48:12;101302.56;;;6.58;56.68
75940;BME280;75809;44.872;20.642;2024-02-16T01:50:38;101298.97;;;6.62;56.88
75940;BME280;75809;44.872;20.642;2024-02-16T01:53:04;101300.69;;;6.63;56.64
75940;BME280;75809;44.872;20.642;2024-02-16T01:55:29;101297.06;;;6.67;55.41
75940;BME280;75809;44.872;20.642;2024-02-16T01:57:57;101297.91;;;6.67;55.99
75940;BME280;75809;44.872;20.642;2024-02-16T02:00:23;101293.53;;;6.68;56.51
75940;BME280;75809;44.872;20.642;2024-02-16T02:02:49;101290.09;;;6.66;56.57
75940;BME280;75809;44.872;20.642;2024-02-16T02:05:15;101288.38;;;6.65;57.11
75940;BME280;75809;44.872;20.642;2024-02-16T02:07:41;101284.84;;;6.66;55.81
75940;BME280;75809;44.872;20.642;2024-02-16T02:10:08;101281.25;;;6.68;56.35
75940;BME280;75809;44.872;20.642;2024-02-16T02:12:34;101282.31;;;6.63;57.40
75940;BME280;75809;44.872;20.642;2024-02-16T02:14:59;101278.22;;;6.53;57.83
75940;BME280;75809;44.872;20.642;2024-02-16T02:17:25;101280.94;;;6.50;57.40
75940;BME280;75809;44.872;20.642;2024-02-16T02:19:50;101283.84;;;6.39;58.09
75940;BME280;75809;44.872;20.642;2024-02-16T02:22:17;101283.50;;;6.19;60.92
75940;BME280;75809;44.872;20.642;2024-02-16T02:24:45;101280.69;;;5.91;62.49
75940;BME280;75809;44.872;20.642;2024-02-16T02:27:11;101276.31;;;5.54;63.57
75940;BME280;75809;44.872;20.642;2024-02-16T02:29:38;101285.81;;;5.21;63.41
75940;BME280;75809;44.872;20.642;2024-02-16T02:32:04;101280.41;;;4.87;63.73
75940;BME280;75809;44.872;20.642;2024-02-16T02:34:29;101293.38;;;4.50;63.81
75940;BME280;75809;44.872;20.642;2024-02-16T02:36:55;101284.94;;;4.32;63.39
75940;BME280;75809;44.872;20.642;2024-02-16T02:39:21;101277.78;;;3.94;64.16
75940;BME280;75809;44.872;20.642;2024-02-16T02:41:46;101281.59;;;3.75;63.88
75940;BME280;75809;44.872;20.642;2024-02-16T02:44:12;101284.22;;;3.75;64.21
75940;BME280;75809;44.872;20.642;2024-02-16T02:46:38;101286.88;;;3.70;63.31
75940;BME280;75809;44.872;20.642;2024-02-16T02:49:04;101295.75;;;3.62;63.83
75940;BME280;75809;44.872;20.642;2024-02-16T02:51:29;101285.44;;;3.53;63.88
75940;BME280;75809;44.872;20.642;2024-02-16T02:53:55;101288.16;;;3.43;64.79
75940;BME280;75809;44.872;20.642;2024-02-16T02:56:21;101288.31;;;3.33;65.87
75940;BME280;75809;44.872;20.642;2024-02-16T02:58:46;101285.75;;;3.31;66.17
75940;BME280;75809;44.872;20.642;2024-02-16T03:01:12;101285.78;;;3.30;66.03
75940;BME280;75809;44.872;20.642;2024-02-16T03:03:39;101291.78;;;3.35;65.48
75940;BME280;75809;44.872;20.642;2024-02-16T03:06:06;101290.06;;;3.32;66.09
75940;BME280;75809;44.872;20.642;2024-02-16T03:08:31;101298.72;;;3.36;66.21
75940;BME280;75809;44.872;20.642;2024-02-16T03:10:57;101288.38;;;3.28;65.83
75940;BME280;75809;44.872;20.642;2024-02-16T03:13:25;101291.91;;;3.24;65.84
75940;BME280;75809;44.872;20.642;2024-02-16T03:15:51;101290.16;;;3.26;65.76
75940;BME280;75809;44.872;20.642;2024-02-16T03:18:18;101286.66;;;3.27;66.51
75940;BME280;75809;44.872;20.642;2024-02-16T03:20:44;101289.22;;;3.29;66.87
75940;BME280;75809;44.872;20.642;2024-02-16T03:23:13;101286.78;;;3.18;66.72
75940;BME280;75809;44.872;20.642;2024-02-16T03:25:38;101293.88;;;3.07;66.71
75940;BME280;75809;44.872;20.642;2024-02-16T03:28:05;101290.47;;;3.03;67.18
75940;BME280;75809;44.872;20.642;2024-02-16T03:30:30;101285.31;;;2.99;67.40
75940;BME280;75809;44.872;20.642;2024-02-16T03:32:56;101294.94;;;2.94;67.09
75940;BME280;75809;44.872;20.642;2024-02-16T03:35:21;101292.56;;;2.72;68.11
75940;BME280;75809;44.872;20.642;2024-02-16T03:37:47;101285.72;;;2.64;68.66
75940;BME280;75809;44.872;20.642;2024-02-16T03:40:12;101299.69;;;2.58;68.38
75940;BME280;75809;44.872;20.642;2024-02-16T03:42:38;101298.41;;;2.11;69.33
75940;BME280;75809;44.872;20.642;2024-02-16T03:45:05;101295.88;;;2.05;69.85
75940;BME280;75809;44.872;20.642;2024-02-16T03:47:30;101293.19;;;2.11;69.65
75940;BME280;75809;44.872;20.642;2024-02-16T03:49:56;101295.00;;;2.06;69.75
75940;BME280;75809;44.872;20.642;2024-02-16T03:52:21;101293.38;;;1.90;70.59
75940;BME280;75809;44.872;20.642;2024-02-16T03:54:47;101294.28;;;1.89;70.43
75940;BME280;75809;44.872;20.642;2024-02-16T03:57:16;101299.53;;;1.83;70.70
75940;BME280;75809;44.872;20.642;2024-02-16T03:59:45;101303.91;;;1.82;70.71
75940;BME280;75809;44.872;20.642;2024-02-16T04:02:14;101300.44;;;1.82;71.07
75940;BME280;75809;44.872;20.642;2024-02-16T04:04:39;101299.59;;;1.75;71.78
75940;BME280;75809;44.872;20.642;2024-02-16T04:07:05;101299.53;;;1.84;71.49
75940;BME280;75809;44.872;20.642;2024-02-16T04:09:32;101303.91;;;1.78;71.49
75940;BME280;75809;44.872;20.642;2024-02-16T04:11:58;101300.44;;;1.82;71.12
75940;BME280;75809;44.872;20.642;2024-02-16T04:14:23;101300.44;;;1.82;71.01
75940;BME280;75809;44.872;20.642;2024-02-16T04:16:49;101297.81;;;1.80;71.25
75940;BME280;75809;44.872;20.642;2024-02-16T04:19:14;101303.13;;;1.71;71.30
75940;BME280;75809;44.872;20.642;2024-02-16T04:21:40;101310.94;;;1.68;71.76
75940;BME280;75809;44.872;20.642;2024-02-16T04:24:06;101298.75;;;1.68;71.69
75940;BME280;75809;44.872;20.642;2024-02-16T04:26:31;101311.88;;;1.55;71.52
75940;BME280;75809;44.872;20.642;2024-02-16T04:28:57;101311.84;;;1.59;71.41
75940;BME280;75809;44.872;20.642;2024-02-16T04:31:22;101307.53;;;1.55;71.49
75940;BME280;75809;44.872;20.642;2024-02-16T04:33:47;101314.47;;;1.56;71.41
75940;BME280;75809;44.872;20.642;2024-02-16T04:36:13;101308.44;;;1.53;71.39
75940;BME280;75809;44.872;20.642;2024-02-16T04:38:40;101315.41;;;1.49;71.46
75940;BME280;75809;44.872;20.642;2024-02-16T04:41:06;101308.47;;;1.47;71.85
75940;BME280;75809;44.872;20.642;2024-02-16T04:43:32;101310.22;;;1.49;71.62
75940;BME280;75809;44.872;20.642;2024-02-16T04:45:57;101314.53;;;1.50;71.77
75940;BME280;75809;44.872;20.642;2024-02-16T04:48:23;101304.16;;;1.44;71.97
75940;BME280;75809;44.872;20.642;2024-02-16T04:50:48;101311.09;;;1.45;72.13
75940;BME280;75809;44.872;20.642;2024-02-16T04:53:14;101319.78;;;1.38;72.69
75940;BME280;75809;44.872;20.642;2024-02-16T04:55:39;101314.59;;;1.35;72.41
75940;BME280;75809;44.872;20.642;2024-02-16T04:58:05;101314.63;;;1.32;71.96
75940;BME280;75809;44.872;20.642;2024-02-16T05:00:35;101309.47;;;1.29;72.31
75940;BME280;75809;44.872;20.642;2024-02-16T05:03:00;101314.66;;;1.26;72.08
75940;BME280;75809;44.872;20.642;2024-02-16T05:05:26;101315.53;;;1.23;71.79
75940;BME280;75809;44.872;20.642;2024-02-16T05:07:51;101312.97;;;1.15;71.92
75940;BME280;75809;44.872;20.642;2024-02-16T05:10:17;101313.88;;;1.11;72.29
75940;BME280;75809;44.872;20.642;2024-02-16T05:12:42;101313.88;;;1.05;72.77
75940;BME280;75809;44.872;20.642;2024-02-16T05:15:08;101310.44;;;1.03;73.09
75940;BME280;75809;44.872;20.642;2024-02-16T05:17:34;101307.84;;;1.03;73.17
75940;BME280;75809;44.872;20.642;2024-02-16T05:20:00;101313.94;;;0.98;73.33
75940;BME280;75809;44.872;20.642;2024-02-16T05:22:25;101306.13;;;0.99;73.37
75940;BME280;75809;44.872;20.642;2024-02-16T05:24:51;101313.94;;;0.96;73.32
75940;BME280;75809;44.872;20.642;2024-02-16T05:27:16;101311.34;;;0.93;73.92
75940;BME280;75809;44.872;20.642;2024-02-16T05:29:42;101313.03;;;1.03;73.35
75940;BME280;75809;44.872;20.642;2024-02-16T05:32:07;101307.84;;;1.02;73.80
75940;BME280;75809;44.872;20.642;2024-02-16T05:34:33;101306.13;;;1.01;73.42
75940;BME280;75809;44.872;20.642;2024-02-16T05:37:06;101306.09;;;1.02;73.56
75940;BME280;75809;44.872;20.642;2024-02-16T05:39:40;101313.94;;;0.98;73.24
75940;BME280;75809;44.872;20.642;2024-02-16T05:42:20;101321.75;;;0.90;73.32
75940;BME280;75809;44.872;20.642;2024-02-16T05:44:47;101317.44;;;0.88;73.42
75940;BME280;75809;44.872;20.642;2024-02-16T05:47:15;101317.41;;;0.97;73.48
75940;BME280;75809;44.872;20.642;2024-02-16T05:49:40;101320.91;;;0.88;73.73
75940;BME280;75809;44.872;20.642;2024-02-16T05:52:06;101325.25;;;0.89;73.25
75940;BME280;75809;44.872;20.642;2024-02-16T05:54:44;101332.19;;;0.87;73.58
75940;BME280;75809;44.872;20.642;2024-02-16T05:57:10;101330.44;;;0.89;73.63
75940;BME280;75809;44.872;20.642;2024-02-16T05:59:36;101336.50;;;0.83;74.13
75940;BME280;75809;44.872;20.642;2024-02-16T06:02:03;101339.97;;;0.90;74.06
75940;BME280;75809;44.872;20.642;2024-02-16T06:04:29;101346.00;;;0.95;73.63
75940;BME280;75809;44.872;20.642;2024-02-16T06:06:54;101350.34;;;0.99;73.41
75940;BME280;75809;44.872;20.642;2024-02-16T06:09:20;101337.38;;;0.96;73.33
75940;BME280;75809;44.872;20.642;2024-02-16T06:11:45;101343.38;;;1.03;72.88
75940;BME280;75809;44.872;20.642;2024-02-16T06:14:10;101353.78;;;1.04;72.65
75940;BME280;75809;44.872;20.642;2024-02-16T06:16:36;101352.91;;;1.08;72.73
75940;BME280;75809;44.872;20.642;2024-02-16T06:19:01;101351.19;;;1.04;72.48
75940;BME280;75809;44.872;20.642;2024-02-16T06:21:27;101345.09;;;1.05;72.65
75940;BME280;75809;44.872;20.642;2024-02-16T06:23:52;101348.59;;;1.07;72.42
75940;BME280;75809;44.872;20.642;2024-02-16T06:26:18;101370.28;;;1.06;72.13
75940;BME280;75809;44.872;20.642;2024-02-16T06:28:43;101357.22;;;1.12;72.42
75940;BME280;75809;44.872;20.642;2024-02-16T06:31:09;101352.91;;;1.11;72.21
75940;BME280;75809;44.872;20.642;2024-02-16T06:33:34;101358.13;;;1.08;72.06
75940;BME280;75809;44.872;20.642;2024-02-16T06:36:00;101366.78;;;1.12;71.83
75940;BME280;75809;44.872;20.642;2024-02-16T06:38:25;101372.00;;;1.04;72.16
75940;BME280;75809;44.872;20.642;2024-02-16T06:40:50;101361.56;;;1.10;72.39
75940;BME280;75809;44.872;20.642;2024-02-16T06:43:16;101358.09;;;1.10;72.16
75940;BME280;75809;44.872;20.642;2024-02-16T06:45:42;101377.16;;;1.13;72.35
75940;BME280;75809;44.872;20.642;2024-02-16T06:48:07;101368.56;;;0.90;72.59
75940;BME280;75809;44.872;20.642;2024-02-16T06:50:32;101371.13;;;1.02;72.43
75940;BME280;75809;44.872;20.642;2024-02-16T06:52:58;101369.44;;;0.97;72.56
75940;BME280;75809;44.872;20.642;2024-02-16T06:55:25;101372.03;;;0.98;72.38
75940;BME280;75809;44.872;20.642;2024-02-16T06:57:50;101370.28;;;0.99;72.55
75940;BME280;75809;44.872;20.642;2024-02-16T07:00:16;101375.47;;;1.09;72.69
75940;BME280;75809;44.872;20.642;2024-02-16T07:02:42;101373.66;;;1.24;72.02
75940;BME280;75809;44.872;20.642;2024-02-16T07:05:08;101372.72;;;1.37;71.65
75940;BME280;75809;44.872;20.642;2024-02-16T07:07:33;101377.03;;;1.44;71.08
75940;BME280;75809;44.872;20.642;2024-02-16T07:10:01;101382.22;;;1.50;71.13
75940;BME280;75809;44.872;20.642;2024-02-16T07:12:27;101381.34;;;1.53;71.04
75940;BME280;75809;44.872;20.642;2024-02-16T07:14:52;101384.78;;;1.55;71.16
75940;BME280;75809;44.872;20.642;2024-02-16T07:17:18;101382.13;;;1.65;71.10
75940;BME280;75809;44.872;20.642;2024-02-16T07:19:44;101383.81;;;1.76;70.91
75940;BME280;75809;44.872;20.642;2024-02-16T07:22:09;101382.91;;;1.81;70.56
75940;BME280;75809;44.872;20.642;2024-02-16T07:24:35;101378.50;;;1.88;70.80
75940;BME280;75809;44.872;20.642;2024-02-16T07:27:00;101381.09;;;1.92;70.69
75940;BME280;75809;44.872;20.642;2024-02-16T07:29:27;101374.97;;;1.98;70.73
75940;BME280;75809;44.872;20.642;2024-02-16T07:31:53;101384.47;;;2.05;71.05
75940;BME280;75809;44.872;20.642;2024-02-16T07:34:19;101374.00;;;2.13;71.24
75940;BME280;75809;44.872;20.642;2024-02-16T07:36:45;101376.53;;;2.23;71.24
75940;BME280;75809;44.872;20.642;2024-02-16T07:39:10;101378.16;;;2.35;71.43
75940;BME280;75809;44.872;20.642;2024-02-16T07:41:38;101380.66;;;2.46;71.63
75940;BME280;75809;44.872;20.642;2024-02-16T07:44:04;101377.06;;;2.59;71.58
75940;BME280;75809;44.872;20.642;2024-02-16T07:46:30;101383.03;;;2.70;71.54
75940;BME280;75809;44.872;20.642;2024-02-16T07:48:55;101378.53;;;2.84;71.29
75940;BME280;75809;44.872;20.642;2024-02-16T07:51:21;101378.31;;;3.04;71.16
75940;BME280;75809;44.872;20.642;2024-02-16T07:53:46;101382.50;;;3.19;71.08
75940;BME280;75809;44.872;20.642;2024-02-16T07:56:12;101383.22;;;3.30;71.08
75940;BME280;75809;44.872;20.642;2024-02-16T07:58:41;101375.13;;;3.52;70.92
75940;BME280;75809;44.872;20.642;2024-02-16T08:01:07;101374.97;;;3.62;70.84
75940;BME280;75809;44.872;20.642;2024-02-16T08:03:32;101372.19;;;3.71;70.16
75940;BME280;75809;44.872;20.642;2024-02-16T08:05:59;101376.41;;;3.83;70.05
75940;BME280;75809;44.872;20.642;2024-02-16T08:08:24;101374.50;;;3.94;69.40
75940;BME280;75809;44.872;20.642;2024-02-16T08:10:50;101383.91;;;4.06;69.00
75940;BME280;75809;44.872;20.642;2024-02-16T08:13:16;101386.34;;;4.17;68.90
75940;BME280;75809;44.872;20.642;2024-02-16T08:15:42;101381.84;;;4.26;68.36
75940;BME280;75809;44.872;20.642;2024-02-16T08:18:07;101390.25;;;4.44;68.39
75940;BME280;75809;44.872;20.642;2024-02-16T08:20:33;101387.41;;;4.56;68.07
75940;BME280;75809;44.872;20.642;2024-02-16T08:22:58;101381.13;;;4.66;67.59
75940;BME280;75809;44.872;20.642;2024-02-16T08:25:24;101381.78;;;4.79;67.52
75940;BME280;75809;44.872;20.642;2024-02-16T08:27:50;101379.75;;;4.93;67.54
75940;BME280;75809;44.872;20.642;2024-02-16T08:30:15;101375.03;;;5.10;67.24
75940;BME280;75809;44.872;20.642;2024-02-16T08:32:41;101373.94;;;5.23;67.17
75940;BME280;75809;44.872;20.642;2024-02-16T08:35:06;101381.53;;;5.36;66.74
75940;BME280;75809;44.872;20.642;2024-02-16T08:37:32;101378.63;;;5.48;66.69
75940;BME280;75809;44.872;20.642;2024-02-16T08:39:59;101373.94;;;5.62;65.86
75940;BME280;75809;44.872;20.642;2024-02-16T08:42:24;101378.91;;;5.76;65.28
75940;BME280;75809;44.872;20.642;2024-02-16T08:44:50;101378.66;;;5.87;65.52
75940;BME280;75809;44.872;20.642;2024-02-16T08:47:15;101366.16;;;5.99;64.84
75940;BME280;75809;44.872;20.642;2024-02-16T08:49:41;101374.53;;;6.14;64.25
75940;BME280;75809;44.872;20.642;2024-02-16T08:52:07;101373.50;;;6.21;64.32
75940;BME280;75809;44.872;20.642;2024-02-16T08:54:33;101377.53;;;6.34;64.10
75940;BME280;75809;44.872;20.642;2024-02-16T08:56:59;101379.81;;;6.49;63.54
75940;BME280;75809;44.872;20.642;2024-02-16T08:59:25;101376.94;;;6.57;62.41
75940;BME280;75809;44.872;20.642;2024-02-16T09:01:51;101377.53;;;6.68;62.20
75940;BME280;75809;44.872;20.642;2024-02-16T09:04:17;101364.06;;;6.80;62.72
75940;BME280;75809;44.872;20.642;2024-02-16T09:06:43;101369.75;;;6.97;60.96
75940;BME280;75809;44.872;20.642;2024-02-16T09:09:08;101374.75;;;7.07;60.95
75940;BME280;75809;44.872;20.642;2024-02-16T09:11:34;101371.66;;;7.23;61.00
75940;BME280;75809;44.872;20.642;2024-02-16T09:13:59;101367.88;;;7.32;60.21
75940;BME280;75809;44.872;20.642;2024-02-16T09:16:25;101372.91;;;7.40;60.65
75940;BME280;75809;44.872;20.642;2024-02-16T09:18:51;101376.94;;;7.51;60.03
75940;BME280;75809;44.872;20.642;2024-02-16T09:21:16;101387.22;;;7.59;60.53
75940;BME280;75809;44.872;20.642;2024-02-16T09:23:42;101363.94;;;7.75;59.95
75940;BME280;75809;44.872;20.642;2024-02-16T09:26:08;101372.47;;;7.83;58.85
75940;BME280;75809;44.872;20.642;2024-02-16T09:28:40;101370.25;;;7.97;58.37
75940;BME280;75809;44.872;20.642;2024-02-16T09:31:06;101372.75;;;8.02;58.34
75940;BME280;75809;44.872;20.642;2024-02-16T09:33:33;101371.38;;;8.17;58.10
75940;BME280;75809;44.872;20.642;2024-02-16T09:35:59;101370.09;;;8.30;57.88
75940;BME280;75809;44.872;20.642;2024-02-16T09:38:24;101369.91;;;8.36;57.60
75940;BME280;75809;44.872;20.642;2024-02-16T09:40:50;101371.31;;;8.46;57.40
75940;BME280;75809;44.872;20.642;2024-02-16T09:43:26;101371.94;;;8.54;57.02
75940;BME280;75809;44.872;20.642;2024-02-16T09:45:58;101370.44;;;8.72;56.55
75940;BME280;75809;44.872;20.642;2024-02-16T09:48:27;101376.06;;;8.86;55.91
75940;BME280;75809;44.872;20.642;2024-02-16T09:50:54;101375.47;;;9.03;55.34
75940;BME280;75809;44.872;20.642;2024-02-16T09:53:23;101376.41;;;9.25;55.20
75940;BME280;75809;44.872;20.642;2024-02-16T09:55:49;101367.00;;;9.42;54.17
75940;BME280;75809;44.872;20.642;2024-02-16T09:58:16;101364.81;;;9.53;53.91
75940;BME280;75809;44.872;20.642;2024-02-16T10:00:54;101367.09;;;9.62;53.44
75940;BME280;75809;44.872;20.642;2024-02-16T10:03:26;101363.84;;;9.77;53.07
75940;BME280;75809;44.872;20.642;2024-02-16T10:06:04;101365.22;;;9.88;52.10
75940;BME280;75809;44.872;20.642;2024-02-16T10:08:30;101366.63;;;9.96;52.40
75940;BME280;75809;44.872;20.642;2024-02-16T10:11:02;101359.88;;;10.11;51.76
75940;BME280;75809;44.872;20.642;2024-02-16T10:13:29;101352.41;;;10.22;50.61
75940;BME280;75809;44.872;20.642;2024-02-16T10:16:07;101349.13;;;10.37;49.82
75940;BME280;75809;44.872;20.642;2024-02-16T10:18:35;101352.97;;;10.51;49.38
75940;BME280;75809;44.872;20.642;2024-02-16T10:21:01;101348.06;;;10.62;48.92
75940;BME280;75809;44.872;20.642;2024-02-16T10:23:27;101342.13;;;10.77;49.09
75940;BME280;75809;44.872;20.642;2024-02-16T10:25:54;101333.41;;;10.95;47.81
75940;BME280;75809;44.872;20.642;2024-02-16T10:28:20;101340.47;;;11.14;47.47
75940;BME280;75809;44.872;20.642;2024-02-16T10:30:56;101324.88;;;11.28;46.70
75940;BME280;75809;44.872;20.642;2024-02-16T10:33:22;101322.56;;;11.39;46.16
75940;BME280;75809;44.872;20.642;2024-02-16T10:35:50;101314.75;;;11.55;46.44
75940;BME280;75809;44.872;20.642;2024-02-16T10:38:17;101321.06;;;11.71;45.47
75940;BME280;75809;44.872;20.642;2024-02-16T10:40:43;101318.84;;;11.81;45.61
75940;BME280;75809;44.872;20.642;2024-02-16T10:43:11;101322.91;;;11.88;45.30
75940;BME280;75809;44.872;20.642;2024-02-16T10:45:39;101311.56;;;12.03;44.51
75940;BME280;75809;44.872;20.642;2024-02-16T10:48:06;101303.78;;;12.18;43.99
75940;BME280;75809;44.872;20.642;2024-02-16T10:50:34;101306.56;;;12.32;43.54
75940;BME280;75809;44.872;20.642;2024-02-16T10:53:04;101299.31;;;12.53;42.99
75940;BME280;75809;44.872;20.642;2024-02-16T10:55:33;101302.34;;;12.62;43.15
75940;BME280;75809;44.872;20.642;2024-02-16T10:58:00;101292.97;;;12.72;42.45
75940;BME280;75809;44.872;20.642;2024-02-16T11:00:26;101288.34;;;12.93;42.45
75940;BME280;75809;44.872;20.642;2024-02-16T11:02:58;101286.50;;;13.11;41.19
75940;BME280;75809;44.872;20.642;2024-02-16T11:05:36;101287.56;;;13.24;40.30
75940;BME280;75809;44.872;20.642;2024-02-16T11:08:12;101288.69;;;13.36;39.96
75940;BME280;75809;44.872;20.642;2024-02-16T11:10:38;101278.31;;;13.47;39.86
75940;BME280;75809;44.872;20.642;2024-02-16T11:13:04;101272.31;;;13.59;38.96
75940;BME280;75809;44.872;20.642;2024-02-16T11:15:31;101276.56;;;13.78;38.56
75940;BME280;75809;44.872;20.642;2024-02-16T11:18:01;101272.78;;;13.98;38.12
75940;BME280;75809;44.872;20.642;2024-02-16T11:20:27;101272.25;;;14.07;37.58
75940;BME280;75809;44.872;20.642;2024-02-16T11:22:53;101272.25;;;14.07;38.34
75940;BME280;75809;44.872;20.642;2024-02-16T11:25:19;101261.53;;;14.23;38.44
75940;BME280;75809;44.872;20.642;2024-02-16T11:27:55;101264.91;;;14.40;37.63
75940;BME280;75809;44.872;20.642;2024-02-16T11:30:20;101264.28;;;14.65;37.94
75940;BME280;75809;44.872;20.642;2024-02-16T11:32:46;101255.31;;;14.68;36.74
75940;BME280;75809;44.872;20.642;2024-02-16T11:35:12;101259.09;;;14.78;36.96
75940;BME280;75809;44.872;20.642;2024-02-16T11:37:37;101251.50;;;15.00;37.04
75940;BME280;75809;44.872;20.642;2024-02-16T11:40:04;101256.50;;;15.05;36.82
75940;BME280;75809;44.872;20.642;2024-02-16T11:42:33;101247.09;;;15.14;35.96
75940;BME280;75809;44.872;20.642;2024-02-16T11:45:00;101235.75;;;15.24;35.71
75940;BME280;75809;44.872;20.642;2024-02-16T11:47:26;101243.09;;;15.21;36.37
75940;BME280;75809;44.872;20.642;2024-02-16T11:50:06;101238.16;;;15.42;35.76
75940;BME280;75809;44.872;20.642;2024-02-16T11:52:43;101237.69;;;15.64;34.98
75940;BME280;75809;44.872;20.642;2024-02-16T11:55:09;101228.75;;;15.77;35.09
75940;BME280;75809;44.872;20.642;2024-02-16T11:57:36;101221.53;;;15.92;34.45
75940;BME280;75809;44.872;20.642;2024-02-16T12:00:03;101220.53;;;16.07;33.51
75940;BME280;75809;44.872;20.642;2024-02-16T12:02:34;101225.34;;;16.28;32.89
75940;BME280;75809;44.872;20.642;2024-02-16T12:05:00;101220.13;;;16.77;32.09
75940;BME280;75809;44.872;20.642;2024-02-16T12:07:27;101213.09;;;17.49;31.36
75940;BME280;75809;44.872;20.642;2024-02-16T12:09:59;101209.97;;;18.14;29.70
75940;BME280;75809;44.872;20.642;2024-02-16T12:12:25;101223.56;;;18.80;28.55
75940;BME280;75809;44.872;20.642;2024-02-16T12:14:53;101209.91;;;19.92;27.34
75940;BME280;75809;44.872;20.642;2024-02-16T12:17:19;101201.91;;;20.64;26.51
75940;BME280;75809;44.872;20.642;2024-02-16T12:19:45;101195.47;;;21.26;25.76
75940;BME280;75809;44.872;20.642;2024-02-16T12:22:19;101191.56;;;21.50;25.20
75940;BME280;75809;44.872;20.642;2024-02-16T12:24:45;101196.06;;;21.98;23.91
75940;BME280;75809;44.872;20.642;2024-02-16T12:27:11;101186.00;;;22.66;22.84
75940;BME280;75809;44.872;20.642;2024-02-16T12:29:38;101180.63;;;23.21;22.42
75940;BME280;75809;44.872;20.642;2024-02-16T12:32:04;101174.78;;;23.07;22.54
75940;BME280;75809;44.872;20.642;2024-02-16T12:34:30;101167.66;;;23.06;21.11
75940;BME280;75809;44.872;20.642;2024-02-16T12:36:56;101167.66;;;23.06;20.81
75940;BME280;75809;44.872;20.642;2024-02-16T12:39:22;101168.66;;;22.78;21.30
75940;BME280;75809;44.872;20.642;2024-02-16T12:41:47;101168.16;;;23.37;21.47
75940;BME280;75809;44.872;20.642;2024-02-16T12:44:14;101175.81;;;23.60;20.86